sensor_id;sensor_type;location;lat;lon;timestamp;temperature;humidity
29571;DHT22;16814;52.118;11.436;2023-03-16T00:01:40;0.70;99.90
29571;DHT22;16814;52.118;11.436;2023-03-16T00:04:05;0.70;99.90
29571;DHT22;16814;52.118;11.436;2023-03-16T00:06:31;0.80;99.90
29571;DHT22;16814;52.118;11.436;2023-03-16T00:08:56;0.90;99.90
29571;DHT22;16814;52.118;11.436;2023-03-16T00:11:26;0.90;99.90
29571;DHT22;16814;52.118;11.436;2023-03-16T00:13:52;0.80;99.90
29571;DHT22;16814;52.118;11.436;2023-03-16T00:16:18;0.80;99.90
29571;DHT22;16814;52.118;11.436;2023-03-16T00:18:43;0.90;99.90
29571;DHT22;16814;52.118;11.436;2023-03-16T00:21:09;0.90;99.90
29571;DHT22;16814;52.118;11.436;2023-03-16T00:23:37;0.80;99.90
29571;DHT22;16814;52.118;11.436;2023-03-16T00:26:05;0.80;99.90
29571;DHT22;16814;52.118;11.436;2023-03-16T00:28:32;0.80;99.90
29571;DHT22;16814;52.118;11.436;2023-03-16T00:31:06;0.80;99.90
29571;DHT22;16814;52.118;11.436;2023-03-16T00:33:32;0.80;99.90
29571;DHT22;16814;52.118;11.436;2023-03-16T00:36:01;0.80;99.90
29571;DHT22;16814;52.118;11.436;2023-03-16T00:38:33;0.80;99.90
29571;DHT22;16814;52.118;11.436;2023-03-16T00:41:00;0.70;99.90
29571;DHT22;16814;52.118;11.436;2023-03-16T00:43:29;0.60;99.90
29571;DHT22;16814;52.118;11.436;2023-03-16T00:46:00;0.60;99.90
29571;DHT22;16814;52.118;11.436;2023-03-16T00:48:32;0.60;99.90
29571;DHT22;16814;52.118;11.436;2023-03-16T00:51:00;0.50;99.90
29571;DHT22;16814;52.118;11.436;2023-03-16T00:53:26;0.50;99.90
29571;DHT22;16814;52.118;11.436;2023-03-16T00:55:51;0.60;99.90
29571;DHT22;16814;52.118;11.436;2023-03-16T00:58:18;0.60;99.90
29571;DHT22;16814;52.118;11.436;2023-03-16T01:00:44;0.70;99.90
29571;DHT22;16814;52.118;11.436;2023-03-16T01:03:10;0.70;99.90
29571;DHT22;16814;52.118;11.436;2023-03-16T01:05:40;0.60;99.90
29571;DHT22;16814;52.118;11.436;2023-03-16T01:08:07;0.60;99.90
29571;DHT22;16814;52.118;11.436;2023-03-16T01:10:36;0.60;99.90
29571;DHT22;16814;52.118;11.436;2023-03-16T01:13:01;0.50;99.90
29571;DHT22;16814;52.118;11.436;2023-03-16T01:15:29;0.50;99.90
29571;DHT22;16814;52.118;11.436;2023-03-16T01:17:54;0.50;99.90
29571;DHT22;16814;52.118;11.436;2023-03-16T01:20:20;0.50;99.90
29571;DHT22;16814;52.118;11.436;2023-03-16T01:22:46;0.50;99.90
29571;DHT22;16814;52.118;11.436;2023-03-16T01:25:12;0.50;99.90
29571;DHT22;16814;52.118;11.436;2023-03-16T01:27:38;0.50;99.90
29571;DHT22;16814;52.118;11.436;2023-03-16T01:30:04;0.50;99.90
29571;DHT22;16814;52.118;11.436;2023-03-16T01:32:30;0.50;99.90
29571;DHT22;16814;52.118;11.436;2023-03-16T01:34:56;0.50;99.90
29571;DHT22;16814;52.118;11.436;2023-03-16T01:37:21;0.50;99.90
29571;DHT22;16814;52.118;11.436;2023-03-16T01:39:48;0.50;99.90
29571;DHT22;16814;52.118;11.436;2023-03-16T01:42:14;0.40;99.90
29571;DHT22;16814;52.118;11.436;2023-03-16T01:44:52;0.40;99.90
29571;DHT22;16814;52.118;11.436;2023-03-16T01:47:19;0.40;99.90
29571;DHT22;16814;52.118;11.436;2023-03-16T01:49:45;0.50;99.90
29571;DHT22;16814;52.118;11.436;2023-03-16T01:52:19;0.30;99.90
29571;DHT22;16814;52.118;11.436;2023-03-16T01:55:06;0.40;99.90
29571;DHT22;16814;52.118;11.436;2023-03-16T01:57:35;0.30;99.90
29571;DHT22;16814;52.118;11.436;2023-03-16T02:00:16;0.20;99.90
29571;DHT22;16814;52.118;11.436;2023-03-16T02:02:47;0.10;99.90
29571;DHT22;16814;52.118;11.436;2023-03-16T02:05:16;0.10;99.90
29571;DHT22;16814;52.118;11.436;2023-03-16T02:07:46;-0.10;99.90
29571;DHT22;16814;52.118;11.436;2023-03-16T02:10:13;-0.10;99.90
29571;DHT22;16814;52.118;11.436;2023-03-16T02:12:39;-0.10;99.90
29571;DHT22;16814;52.118;11.436;2023-03-16T02:15:05;0.00;99.90
29571;DHT22;16814;52.118;11.436;2023-03-16T02:17:33;0.20;99.90
29571;DHT22;16814;52.118;11.436;2023-03-16T02:22:48;0.20;99.90
29571;DHT22;16814;52.118;11.436;2023-03-16T02:25:16;0.20;99.90
29571;DHT22;16814;52.118;11.436;2023-03-16T02:30:27;0.20;99.90
29571;DHT22;16814;52.118;11.436;2023-03-16T02:32:53;0.20;99.90
29571;DHT22;16814;52.118;11.436;2023-03-16T02:35:20;0.20;99.90
29571;DHT22;16814;52.118;11.436;2023-03-16T02:37:46;0.20;99.90
29571;DHT22;16814;52.118;11.436;2023-03-16T02:40:21;0.20;99.90
29571;DHT22;16814;52.118;11.436;2023-03-16T02:42:54;0.30;99.90
29571;DHT22;16814;52.118;11.436;2023-03-16T02:45:22;0.20;99.90
29571;DHT22;16814;52.118;11.436;2023-03-16T02:47:52;0.20;99.90
29571;DHT22;16814;52.118;11.436;2023-03-16T02:50:19;0.30;99.90
29571;DHT22;16814;52.118;11.436;2023-03-16T02:52:45;0.20;99.90
29571;DHT22;16814;52.118;11.436;2023-03-16T02:55:13;0.30;99.90
29571;DHT22;16814;52.118;11.436;2023-03-16T02:57:38;0.10;99.90
29571;DHT22;16814;52.118;11.436;2023-03-16T03:00:04;0.10;99.90
29571;DHT22;16814;52.118;11.436;2023-03-16T03:02:36;0.00;99.90
29571;DHT22;16814;52.118;11.436;2023-03-16T03:05:02;-0.10;99.90
29571;DHT22;16814;52.118;11.436;2023-03-16T03:07:27;-0.20;99.90
29571;DHT22;16814;52.118;11.436;2023-03-16T03:09:56;-0.10;99.90
29571;DHT22;16814;52.118;11.436;2023-03-16T03:12:22;-0.20;99.90
29571;DHT22;16814;52.118;11.436;2023-03-16T03:14:47;-0.20;99.90
29571;DHT22;16814;52.118;11.436;2023-03-16T03:17:13;-0.10;99.90
29571;DHT22;16814;52.118;11.436;2023-03-16T03:19:38;-0.10;99.90
29571;DHT22;16814;52.118;11.436;2023-03-16T03:22:04;0.00;99.90
29571;DHT22;16814;52.118;11.436;2023-03-16T03:24:31;0.00;99.90
29571;DHT22;16814;52.118;11.436;2023-03-16T03:26:57;0.00;99.90
29571;DHT22;16814;52.118;11.436;2023-03-16T03:29:26;0.00;99.90
29571;DHT22;16814;52.118;11.436;2023-03-16T03:31:59;0.00;99.90
29571;DHT22;16814;52.118;11.436;2023-03-16T03:34:26;0.10;99.90
29571;DHT22;16814;52.118;11.436;2023-03-16T03:36:52;0.10;99.90
29571;DHT22;16814;52.118;11.436;2023-03-16T03:39:18;0.10;99.90
29571;DHT22;16814;52.118;11.436;2023-03-16T03:41:43;0.20;99.90
29571;DHT22;16814;52.118;11.436;2023-03-16T03:44:09;0.10;99.90
29571;DHT22;16814;52.118;11.436;2023-03-16T03:46:35;0.10;99.90
29571;DHT22;16814;52.118;11.436;2023-03-16T03:49:00;0.10;99.90
29571;DHT22;16814;52.118;11.436;2023-03-16T03:51:30;0.20;99.90
29571;DHT22;16814;52.118;11.436;2023-03-16T03:53:56;0.20;99.90
29571;DHT22;16814;52.118;11.436;2023-03-16T03:56:22;0.20;99.90
29571;DHT22;16814;52.118;11.436;2023-03-16T03:58:48;0.10;99.90
29571;DHT22;16814;52.118;11.436;2023-03-16T04:01:13;0.10;99.90
29571;DHT22;16814;52.118;11.436;2023-03-16T04:03:39;0.00;99.90
29571;DHT22;16814;52.118;11.436;2023-03-16T04:06:04;0.10;99.90
29571;DHT22;16814;52.118;11.436;2023-03-16T04:08:32;0.10;99.90
29571;DHT22;16814;52.118;11.436;2023-03-16T04:10:58;0.20;99.90
29571;DHT22;16814;52.118;11.436;2023-03-16T04:13:24;0.00;99.90
29571;DHT22;16814;52.118;11.436;2023-03-16T04:15:55;-0.10;99.90
29571;DHT22;16814;52.118;11.436;2023-03-16T04:18:21;-0.10;99.90
29571;DHT22;16814;52.118;11.436;2023-03-16T04:20:47;-0.10;99.90
29571;DHT22;16814;52.118;11.436;2023-03-16T04:23:12;-0.10;99.90
29571;DHT22;16814;52.118;11.436;2023-03-16T04:25:38;0.00;99.90
29571;DHT22;16814;52.118;11.436;2023-03-16T04:28:04;0.00;99.90
29571;DHT22;16814;52.118;11.436;2023-03-16T04:30:29;-0.10;99.90
29571;DHT22;16814;52.118;11.436;2023-03-16T04:32:55;-0.10;99.90
29571;DHT22;16814;52.118;11.436;2023-03-16T04:35:20;-0.10;99.90
29571;DHT22;16814;52.118;11.436;2023-03-16T04:37:46;-0.10;99.90
29571;DHT22;16814;52.118;11.436;2023-03-16T04:40:12;-0.10;99.90
29571;DHT22;16814;52.118;11.436;2023-03-16T04:42:43;-0.10;99.90
29571;DHT22;16814;52.118;11.436;2023-03-16T04:45:10;-0.10;99.90
29571;DHT22;16814;52.118;11.436;2023-03-16T04:47:36;-0.10;99.90
29571;DHT22;16814;52.118;11.436;2023-03-16T04:50:02;-0.10;99.90
29571;DHT22;16814;52.118;11.436;2023-03-16T04:52:28;-0.10;99.90
29571;DHT22;16814;52.118;11.436;2023-03-16T04:54:54;-0.20;99.90
29571;DHT22;16814;52.118;11.436;2023-03-16T04:57:19;-0.20;99.90
29571;DHT22;16814;52.118;11.436;2023-03-16T04:59:45;-0.20;99.90
29571;DHT22;16814;52.118;11.436;2023-03-16T05:02:10;-0.20;99.90
29571;DHT22;16814;52.118;11.436;2023-03-16T05:04:36;-0.20;99.90
29571;DHT22;16814;52.118;11.436;2023-03-16T05:07:02;-0.20;99.90
29571;DHT22;16814;52.118;11.436;2023-03-16T05:09:27;-0.20;99.90
29571;DHT22;16814;52.118;11.436;2023-03-16T05:11:53;-0.20;99.90
29571;DHT22;16814;52.118;11.436;2023-03-16T05:14:18;-0.20;99.90
29571;DHT22;16814;52.118;11.436;2023-03-16T05:16:44;-0.10;99.90
29571;DHT22;16814;52.118;11.436;2023-03-16T05:19:09;-0.10;99.90
29571;DHT22;16814;52.118;11.436;2023-03-16T05:21:35;-0.20;99.90
29571;DHT22;16814;52.118;11.436;2023-03-16T05:24:06;-0.30;99.90
29571;DHT22;16814;52.118;11.436;2023-03-16T05:26:32;-0.20;99.90
29571;DHT22;16814;52.118;11.436;2023-03-16T05:28:58;-0.20;99.90
29571;DHT22;16814;52.118;11.436;2023-03-16T05:31:24;-0.20;99.90
29571;DHT22;16814;52.118;11.436;2023-03-16T05:33:53;-0.20;99.90
29571;DHT22;16814;52.118;11.436;2023-03-16T05:36:19;-0.20;99.90
29571;DHT22;16814;52.118;11.436;2023-03-16T05:38:45;-0.20;99.90
29571;DHT22;16814;52.118;11.436;2023-03-16T05:41:11;-0.10;99.90
29571;DHT22;16814;52.118;11.436;2023-03-16T05:43:39;-0.10;99.90
29571;DHT22;16814;52.118;11.436;2023-03-16T05:46:04;0.00;99.90
29571;DHT22;16814;52.118;11.436;2023-03-16T05:48:30;0.00;99.90
29571;DHT22;16814;52.118;11.436;2023-03-16T05:50:56;0.00;99.90
29571;DHT22;16814;52.118;11.436;2023-03-16T05:53:21;0.10;99.90
29571;DHT22;16814;52.118;11.436;2023-03-16T05:55:53;0.30;99.90
29571;DHT22;16814;52.118;11.436;2023-03-16T05:58:18;0.40;99.90
29571;DHT22;16814;52.118;11.436;2023-03-16T06:00:44;0.50;99.90
29571;DHT22;16814;52.118;11.436;2023-03-16T06:03:10;0.60;99.90
29571;DHT22;16814;52.118;11.436;2023-03-16T06:05:35;0.60;99.90
29571;DHT22;16814;52.118;11.436;2023-03-16T06:08:01;0.60;99.90
29571;DHT22;16814;52.118;11.436;2023-03-16T06:10:27;1.00;99.90
29571;DHT22;16814;52.118;11.436;2023-03-16T06:12:52;1.40;99.90
29571;DHT22;16814;52.118;11.436;2023-03-16T06:15:18;1.80;99.90
29571;DHT22;16814;52.118;11.436;2023-03-16T06:17:43;2.00;99.90
29571;DHT22;16814;52.118;11.436;2023-03-16T06:20:11;2.30;99.90
29571;DHT22;16814;52.118;11.436;2023-03-16T06:22:38;2.60;99.90
29571;DHT22;16814;52.118;11.436;2023-03-16T06:25:04;2.80;99.90
29571;DHT22;16814;52.118;11.436;2023-03-16T06:27:30;3.20;99.90
29571;DHT22;16814;52.118;11.436;2023-03-16T06:29:56;3.80;99.90
29571;DHT22;16814;52.118;11.436;2023-03-16T06:32:21;3.90;99.90
29571;DHT22;16814;52.118;11.436;2023-03-16T06:34:47;3.90;99.90
29571;DHT22;16814;52.118;11.436;2023-03-16T06:37:13;3.90;99.90
29571;DHT22;16814;52.118;11.436;2023-03-16T06:39:39;3.90;99.90
29571;DHT22;16814;52.118;11.436;2023-03-16T06:42:04;4.60;99.90
29571;DHT22;16814;52.118;11.436;2023-03-16T06:44:30;5.60;99.90
29571;DHT22;16814;52.118;11.436;2023-03-16T06:46:56;6.50;99.90
29571;DHT22;16814;52.118;11.436;2023-03-16T06:49:22;7.20;99.90
29571;DHT22;16814;52.118;11.436;2023-03-16T06:51:47;7.80;99.90
29571;DHT22;16814;52.118;11.436;2023-03-16T06:54:13;8.20;99.90
29571;DHT22;16814;52.118;11.436;2023-03-16T06:56:39;8.70;99.90
29571;DHT22;16814;52.118;11.436;2023-03-16T06:59:05;8.70;99.90
29571;DHT22;16814;52.118;11.436;2023-03-16T07:01:30;8.90;99.90
29571;DHT22;16814;52.118;11.436;2023-03-16T07:03:56;9.10;99.90
29571;DHT22;16814;52.118;11.436;2023-03-16T07:06:21;9.20;99.90
29571;DHT22;16814;52.118;11.436;2023-03-16T07:08:47;9.70;99.90
29571;DHT22;16814;52.118;11.436;2023-03-16T07:11:13;9.90;99.90
29571;DHT22;16814;52.118;11.436;2023-03-16T07:13:39;9.90;99.90
29571;DHT22;16814;52.118;11.436;2023-03-16T07:16:05;10.30;99.90
29571;DHT22;16814;52.118;11.436;2023-03-16T07:18:31;10.60;99.90
29571;DHT22;16814;52.118;11.436;2023-03-16T07:20:57;10.90;99.90
29571;DHT22;16814;52.118;11.436;2023-03-16T07:23:23;10.80;99.90
29571;DHT22;16814;52.118;11.436;2023-03-16T07:25:50;10.90;99.90
29571;DHT22;16814;52.118;11.436;2023-03-16T07:28:17;10.90;99.90
29571;DHT22;16814;52.118;11.436;2023-03-16T07:30:44;10.70;99.90
29571;DHT22;16814;52.118;11.436;2023-03-16T07:33:10;11.10;99.90
29571;DHT22;16814;52.118;11.436;2023-03-16T07:35:36;11.00;99.70
29571;DHT22;16814;52.118;11.436;2023-03-16T07:38:02;11.30;99.00
29571;DHT22;16814;52.118;11.436;2023-03-16T07:40:28;11.20;98.80
29571;DHT22;16814;52.118;11.436;2023-03-16T07:42:53;11.40;99.90
29571;DHT22;16814;52.118;11.436;2023-03-16T07:45:19;11.50;98.40
29571;DHT22;16814;52.118;11.436;2023-03-16T07:47:45;11.40;99.90
29571;DHT22;16814;52.118;11.436;2023-03-16T07:50:11;11.40;99.10
29571;DHT22;16814;52.118;11.436;2023-03-16T07:52:38;11.00;99.30
29571;DHT22;16814;52.118;11.436;2023-03-16T07:55:05;11.00;99.90
29571;DHT22;16814;52.118;11.436;2023-03-16T07:57:30;10.80;99.90
29571;DHT22;16814;52.118;11.436;2023-03-16T07:59:56;10.60;99.90
29571;DHT22;16814;52.118;11.436;2023-03-16T08:02:23;10.50;99.90
29571;DHT22;16814;52.118;11.436;2023-03-16T08:04:49;10.10;99.90
29571;DHT22;16814;52.118;11.436;2023-03-16T08:07:16;9.90;99.90
29571;DHT22;16814;52.118;11.436;2023-03-16T08:09:42;9.80;99.90
29571;DHT22;16814;52.118;11.436;2023-03-16T08:12:08;9.50;99.90
29571;DHT22;16814;52.118;11.436;2023-03-16T08:14:34;9.10;99.90
29571;DHT22;16814;52.118;11.436;2023-03-16T08:17:02;9.00;99.90
29571;DHT22;16814;52.118;11.436;2023-03-16T08:19:28;8.70;99.90
29571;DHT22;16814;52.118;11.436;2023-03-16T08:21:54;8.40;99.90
29571;DHT22;16814;52.118;11.436;2023-03-16T08:24:20;8.20;99.90
29571;DHT22;16814;52.118;11.436;2023-03-16T08:26:46;7.90;99.90
29571;DHT22;16814;52.118;11.436;2023-03-16T08:29:12;7.70;99.90
29571;DHT22;16814;52.118;11.436;2023-03-16T08:31:38;7.70;99.90
29571;DHT22;16814;52.118;11.436;2023-03-16T08:34:03;7.70;99.90
29571;DHT22;16814;52.118;11.436;2023-03-16T08:36:29;7.70;99.90
29571;DHT22;16814;52.118;11.436;2023-03-16T08:38:55;7.70;99.90
29571;DHT22;16814;52.118;11.436;2023-03-16T08:41:21;7.60;99.90
29571;DHT22;16814;52.118;11.436;2023-03-16T08:43:47;7.60;99.90
29571;DHT22;16814;52.118;11.436;2023-03-16T08:46:13;7.70;99.90
29571;DHT22;16814;52.118;11.436;2023-03-16T08:48:39;7.70;99.90
29571;DHT22;16814;52.118;11.436;2023-03-16T08:51:06;7.70;99.90
29571;DHT22;16814;52.118;11.436;2023-03-16T08:53:32;7.70;99.90
29571;DHT22;16814;52.118;11.436;2023-03-16T08:56:06;7.70;99.90
29571;DHT22;16814;52.118;11.436;2023-03-16T08:58:33;7.80;99.90
29571;DHT22;16814;52.118;11.436;2023-03-16T09:01:00;7.80;99.90
29571;DHT22;16814;52.118;11.436;2023-03-16T09:03:26;7.90;99.90
29571;DHT22;16814;52.118;11.436;2023-03-16T09:05:53;7.90;99.90
29571;DHT22;16814;52.118;11.436;2023-03-16T09:08:19;7.90;99.90
29571;DHT22;16814;52.118;11.436;2023-03-16T09:10:44;7.60;99.90
29571;DHT22;16814;52.118;11.436;2023-03-16T09:13:11;7.60;99.90
29571;DHT22;16814;52.118;11.436;2023-03-16T09:15:37;7.50;99.90
29571;DHT22;16814;52.118;11.436;2023-03-16T09:18:03;7.30;99.90
29571;DHT22;16814;52.118;11.436;2023-03-16T09:20:30;7.30;99.90
29571;DHT22;16814;52.118;11.436;2023-03-16T09:22:56;7.30;99.90
29571;DHT22;16814;52.118;11.436;2023-03-16T09:25:22;7.70;99.90
29571;DHT22;16814;52.118;11.436;2023-03-16T09:27:49;7.90;99.90
29571;DHT22;16814;52.118;11.436;2023-03-16T09:30:15;8.10;99.90
29571;DHT22;16814;52.118;11.436;2023-03-16T09:32:41;8.30;99.90
29571;DHT22;16814;52.118;11.436;2023-03-16T09:35:07;8.50;99.90
29571;DHT22;16814;52.118;11.436;2023-03-16T09:37:33;8.70;99.90
29571;DHT22;16814;52.118;11.436;2023-03-16T09:39:59;8.70;99.90
29571;DHT22;16814;52.118;11.436;2023-03-16T09:42:36;8.70;99.90
29571;DHT22;16814;52.118;11.436;2023-03-16T09:45:16;8.70;99.90
29571;DHT22;16814;52.118;11.436;2023-03-16T09:47:45;8.70;99.90
29571;DHT22;16814;52.118;11.436;2023-03-16T09:50:22;8.70;99.90
29571;DHT22;16814;52.118;11.436;2023-03-16T09:53:13;8.90;99.90
29571;DHT22;16814;52.118;11.436;2023-03-16T09:55:45;9.20;99.90
29571;DHT22;16814;52.118;11.436;2023-03-16T09:58:16;9.40;99.90
29571;DHT22;16814;52.118;11.436;2023-03-16T10:00:58;9.40;99.90
29571;DHT22;16814;52.118;11.436;2023-03-16T10:06:15;9.50;99.20
29571;DHT22;16814;52.118;11.436;2023-03-16T10:11:41;9.50;99.60
29571;DHT22;16814;52.118;11.436;2023-03-16T10:14:46;9.80;99.90
29571;DHT22;16814;52.118;11.436;2023-03-16T10:17:17;9.80;99.50
29571;DHT22;16814;52.118;11.436;2023-03-16T10:19:56;9.90;99.90
29571;DHT22;16814;52.118;11.436;2023-03-16T10:22:29;9.70;99.20
29571;DHT22;16814;52.118;11.436;2023-03-16T10:25:18;9.70;99.70
29571;DHT22;16814;52.118;11.436;2023-03-16T10:27:46;9.80;98.90
29571;DHT22;16814;52.118;11.436;2023-03-16T10:32:49;9.60;97.80
29571;DHT22;16814;52.118;11.436;2023-03-16T10:38:30;9.70;98.20
29571;DHT22;16814;52.118;11.436;2023-03-16T10:41:05;9.80;96.90
29571;DHT22;16814;52.118;11.436;2023-03-16T10:43:30;9.70;96.00
29571;DHT22;16814;52.118;11.436;2023-03-16T10:45:59;9.70;96.00
29571;DHT22;16814;52.118;11.436;2023-03-16T10:48:26;9.70;96.00
29571;DHT22;16814;52.118;11.436;2023-03-16T10:50:56;9.80;95.00
29571;DHT22;16814;52.118;11.436;2023-03-16T10:53:28;9.80;94.00
29571;DHT22;16814;52.118;11.436;2023-03-16T10:56:10;9.80;96.10
29571;DHT22;16814;52.118;11.436;2023-03-16T10:58:40;9.80;93.90
29571;DHT22;16814;52.118;11.436;2023-03-16T11:01:26;9.70;94.90
29571;DHT22;16814;52.118;11.436;2023-03-16T11:03:55;9.70;95.00
29571;DHT22;16814;52.118;11.436;2023-03-16T11:06:29;9.60;96.00
29571;DHT22;16814;52.118;11.436;2023-03-16T11:09:11;9.30;96.10
29571;DHT22;16814;52.118;11.436;2023-03-16T11:11:38;9.40;95.60
29571;DHT22;16814;52.118;11.436;2023-03-16T11:14:11;9.50;94.70
29571;DHT22;16814;52.118;11.436;2023-03-16T11:16:47;9.60;95.40
29571;DHT22;16814;52.118;11.436;2023-03-16T11:19:22;9.40;94.20
29571;DHT22;16814;52.118;11.436;2023-03-16T11:24:39;9.40;93.60
29571;DHT22;16814;52.118;11.436;2023-03-16T11:32:49;9.90;91.80
29571;DHT22;16814;52.118;11.436;2023-03-16T11:35:19;9.80;90.70
29571;DHT22;16814;52.118;11.436;2023-03-16T11:37:59;9.60;85.10
29571;DHT22;16814;52.118;11.436;2023-03-16T11:40:35;9.50;89.90
29571;DHT22;16814;52.118;11.436;2023-03-16T11:43:42;9.50;90.00
29571;DHT22;16814;52.118;11.436;2023-03-16T11:46:24;9.40;86.70
29571;DHT22;16814;52.118;11.436;2023-03-16T11:56:49;9.40;89.00
29571;DHT22;16814;52.118;11.436;2023-03-16T12:10:50;9.40;81.70
29571;DHT22;16814;52.118;11.436;2023-03-16T12:16:27;9.30;81.80
29571;DHT22;16814;52.118;11.436;2023-03-16T12:18:59;9.30;82.00
29571;DHT22;16814;52.118;11.436;2023-03-16T12:21:30;9.30;80.60
29571;DHT22;16814;52.118;11.436;2023-03-16T12:24:01;9.40;83.10
29571;DHT22;16814;52.118;11.436;2023-03-16T12:26:31;9.50;82.00
29571;DHT22;16814;52.118;11.436;2023-03-16T12:29:06;9.50;83.60
29571;DHT22;16814;52.118;11.436;2023-03-16T12:31:45;9.50;84.50
29571;DHT22;16814;52.118;11.436;2023-03-16T12:36:58;9.30;82.10
29571;DHT22;16814;52.118;11.436;2023-03-16T12:50:51;9.20;81.80
29571;DHT22;16814;52.118;11.436;2023-03-16T12:56:09;9.30;85.00
29571;DHT22;16814;52.118;11.436;2023-03-16T12:58:40;9.30;83.80
29571;DHT22;16814;52.118;11.436;2023-03-16T13:01:10;9.40;87.20
29571;DHT22;16814;52.118;11.436;2023-03-16T13:03:37;9.40;89.50
29571;DHT22;16814;52.118;11.436;2023-03-16T13:06:03;9.60;88.90
29571;DHT22;16814;52.118;11.436;2023-03-16T13:08:41;9.50;85.50
29571;DHT22;16814;52.118;11.436;2023-03-16T13:11:10;9.50;86.40
29571;DHT22;16814;52.118;11.436;2023-03-16T13:14:05;9.50;86.50
29571;DHT22;16814;52.118;11.436;2023-03-16T13:16:37;9.30;87.80
29571;DHT22;16814;52.118;11.436;2023-03-16T13:19:29;9.40;86.60
29571;DHT22;16814;52.118;11.436;2023-03-16T13:22:02;9.40;87.80
29571;DHT22;16814;52.118;11.436;2023-03-16T13:24:38;9.20;86.20
29571;DHT22;16814;52.118;11.436;2023-03-16T13:27:18;9.10;87.60
29571;DHT22;16814;52.118;11.436;2023-03-16T13:29:57;9.10;90.00
29571;DHT22;16814;52.118;11.436;2023-03-16T13:32:25;9.30;90.90
29571;DHT22;16814;52.118;11.436;2023-03-16T13:34:58;9.50;90.60
29571;DHT22;16814;52.118;11.436;2023-03-16T13:37:26;9.60;88.70
29571;DHT22;16814;52.118;11.436;2023-03-16T13:39:54;9.50;85.30
29571;DHT22;16814;52.118;11.436;2023-03-16T13:42:22;9.30;87.60
29571;DHT22;16814;52.118;11.436;2023-03-16T13:44:52;9.10;89.40
29571;DHT22;16814;52.118;11.436;2023-03-16T13:47:20;9.00;89.90
29571;DHT22;16814;52.118;11.436;2023-03-16T13:49:48;9.00;91.00
29571;DHT22;16814;52.118;11.436;2023-03-16T13:52:29;9.00;90.10
29571;DHT22;16814;52.118;11.436;2023-03-16T13:54:57;9.00;88.20
29571;DHT22;16814;52.118;11.436;2023-03-16T13:57:26;8.90;88.60
29571;DHT22;16814;52.118;11.436;2023-03-16T14:00:00;8.80;89.70
29571;DHT22;16814;52.118;11.436;2023-03-16T14:02:27;8.80;89.90
29571;DHT22;16814;52.118;11.436;2023-03-16T14:04:53;8.70;90.00
29571;DHT22;16814;52.118;11.436;2023-03-16T14:07:19;8.60;90.50
29571;DHT22;16814;52.118;11.436;2023-03-16T14:09:46;8.70;91.00
29571;DHT22;16814;52.118;11.436;2023-03-16T14:12:15;8.80;89.00
29571;DHT22;16814;52.118;11.436;2023-03-16T14:14:44;8.90;90.20
29571;DHT22;16814;52.118;11.436;2023-03-16T14:17:16;9.00;90.70
29571;DHT22;16814;52.118;11.436;2023-03-16T14:19:50;9.10;90.30
29571;DHT22;16814;52.118;11.436;2023-03-16T14:22:19;8.90;91.60
29571;DHT22;16814;52.118;11.436;2023-03-16T14:24:53;8.60;92.30
29571;DHT22;16814;52.118;11.436;2023-03-16T14:27:25;8.50;92.60
29571;DHT22;16814;52.118;11.436;2023-03-16T14:29:58;8.50;93.00
29571;DHT22;16814;52.118;11.436;2023-03-16T14:32:33;8.40;92.60
29571;DHT22;16814;52.118;11.436;2023-03-16T14:35:11;8.40;93.80
29571;DHT22;16814;52.118;11.436;2023-03-16T14:37:38;8.30;93.40
29571;DHT22;16814;52.118;11.436;2023-03-16T14:40:28;8.30;93.40
29571;DHT22;16814;52.118;11.436;2023-03-16T14:42:54;8.50;94.50
29571;DHT22;16814;52.118;11.436;2023-03-16T14:45:21;8.70;94.80
29571;DHT22;16814;52.118;11.436;2023-03-16T14:47:49;8.70;93.80
29571;DHT22;16814;52.118;11.436;2023-03-16T14:50:23;8.70;93.70
29571;DHT22;16814;52.118;11.436;2023-03-16T14:52:54;8.80;92.80
29571;DHT22;16814;52.118;11.436;2023-03-16T14:55:20;8.70;93.20
29571;DHT22;16814;52.118;11.436;2023-03-16T14:57:48;8.60;94.30
29571;DHT22;16814;52.118;11.436;2023-03-16T15:00:16;8.50;93.90
29571;DHT22;16814;52.118;11.436;2023-03-16T15:02:47;8.40;94.40
29571;DHT22;16814;52.118;11.436;2023-03-16T15:05:23;8.50;92.90
29571;DHT22;16814;52.118;11.436;2023-03-16T15:07:52;8.40;92.50
29571;DHT22;16814;52.118;11.436;2023-03-16T15:10:25;8.50;92.60
29571;DHT22;16814;52.118;11.436;2023-03-16T15:12:51;8.30;92.30
29571;DHT22;16814;52.118;11.436;2023-03-16T15:15:29;8.40;92.50
29571;DHT22;16814;52.118;11.436;2023-03-16T15:17:54;8.40;92.40
29571;DHT22;16814;52.118;11.436;2023-03-16T15:20:28;8.40;91.50
29571;DHT22;16814;52.118;11.436;2023-03-16T15:22:56;8.40;91.90
29571;DHT22;16814;52.118;11.436;2023-03-16T15:25:41;8.30;93.70
29571;DHT22;16814;52.118;11.436;2023-03-16T15:30:33;8.30;93.60
29571;DHT22;16814;52.118;11.436;2023-03-16T15:32:59;8.20;93.60
29571;DHT22;16814;52.118;11.436;2023-03-16T15:35:25;8.20;95.20
29571;DHT22;16814;52.118;11.436;2023-03-16T15:37:51;8.20;94.60
29571;DHT22;16814;52.118;11.436;2023-03-16T15:40:25;8.20;95.40
29571;DHT22;16814;52.118;11.436;2023-03-16T15:42:51;8.10;95.30
29571;DHT22;16814;52.118;11.436;2023-03-16T15:45:19;8.00;96.00
29571;DHT22;16814;52.118;11.436;2023-03-16T15:47:49;7.90;95.80
29571;DHT22;16814;52.118;11.436;2023-03-16T15:50:18;7.90;97.10
29571;DHT22;16814;52.118;11.436;2023-03-16T15:52:48;8.00;97.50
29571;DHT22;16814;52.118;11.436;2023-03-16T15:55:23;8.00;96.80
29571;DHT22;16814;52.118;11.436;2023-03-16T15:57:56;7.90;96.70
29571;DHT22;16814;52.118;11.436;2023-03-16T16:00:28;8.00;97.20
29571;DHT22;16814;52.118;11.436;2023-03-16T16:02:55;7.90;96.60
29571;DHT22;16814;52.118;11.436;2023-03-16T16:05:22;8.00;96.70
29571;DHT22;16814;52.118;11.436;2023-03-16T16:07:48;7.90;97.50
29571;DHT22;16814;52.118;11.436;2023-03-16T16:10:14;7.70;98.60
29571;DHT22;16814;52.118;11.436;2023-03-16T16:12:42;7.60;99.70
29571;DHT22;16814;52.118;11.436;2023-03-16T16:15:29;7.60;99.90
29571;DHT22;16814;52.118;11.436;2023-03-16T16:17:58;7.50;99.90
29571;DHT22;16814;52.118;11.436;2023-03-16T16:20:26;7.60;99.90
29571;DHT22;16814;52.118;11.436;2023-03-16T16:22:53;7.50;99.90
29571;DHT22;16814;52.118;11.436;2023-03-16T16:25:22;7.40;99.90
29571;DHT22;16814;52.118;11.436;2023-03-16T16:27:50;7.30;99.90
29571;DHT22;16814;52.118;11.436;2023-03-16T16:30:27;7.20;99.90
29571;DHT22;16814;52.118;11.436;2023-03-16T16:32:56;7.20;99.90
29571;DHT22;16814;52.118;11.436;2023-03-16T16:35:24;7.10;99.90
29571;DHT22;16814;52.118;11.436;2023-03-16T16:37:50;7.10;99.90
29571;DHT22;16814;52.118;11.436;2023-03-16T16:40:21;7.10;99.90
29571;DHT22;16814;52.118;11.436;2023-03-16T16:42:49;7.10;99.90
29571;DHT22;16814;52.118;11.436;2023-03-16T16:45:21;7.00;99.90